sensor_id;sensor_type;location;lat;lon;timestamp;P1;durP1;ratioP1;P2;durP2;ratioP2
22939;SDS011;11636;52.086;5.090;2023-05-10T00:02:51;29.15;;;20.27;;
22939;SDS011;11636;52.086;5.090;2023-05-10T00:05:39;27.35;;;19.70;;
22939;SDS011;11636;52.086;5.090;2023-05-10T00:08:32;29.48;;;20.95;;
22939;SDS011;11636;52.086;5.090;2023-05-10T00:11:26;26.80;;;17.77;;
22939;SDS011;11636;52.086;5.090;2023-05-10T00:14:13;22.70;;;16.67;;
22939;SDS011;11636;52.086;5.090;2023-05-10T00:17:07;31.88;;;20.63;;
22939;SDS011;11636;52.086;5.090;2023-05-10T00:19:55;32.28;;;21.20;;
22939;SDS011;11636;52.086;5.090;2023-05-10T00:22:49;26.58;;;19.08;;
22939;SDS011;11636;52.086;5.090;2023-05-10T00:25:42;45.13;;;27.45;;
22939;SDS011;11636;52.086;5.090;2023-05-10T00:28:36;44.95;;;27.83;;
22939;SDS011;11636;52.086;5.090;2023-05-10T00:31:24;37.90;;;24.75;;
22939;SDS011;11636;52.086;5.090;2023-05-10T00:34:17;41.83;;;27.35;;
22939;SDS011;11636;52.086;5.090;2023-05-10T00:37:11;41.50;;;26.48;;
22939;SDS011;11636;52.086;5.090;2023-05-10T00:39:59;37.88;;;24.20;;
22939;SDS011;11636;52.086;5.090;2023-05-10T00:42:52;39.60;;;24.90;;
22939;SDS011;11636;52.086;5.090;2023-05-10T00:45:46;34.47;;;22.20;;
22939;SDS011;11636;52.086;5.090;2023-05-10T00:48:34;35.50;;;22.70;;
22939;SDS011;11636;52.086;5.090;2023-05-10T00:51:27;44.03;;;26.40;;
22939;SDS011;11636;52.086;5.090;2023-05-10T00:54:22;41.88;;;24.75;;
22939;SDS011;11636;52.086;5.090;2023-05-10T00:57:09;33.60;;;21.67;;
22939;SDS011;11636;52.086;5.090;2023-05-10T01:00:03;50.83;;;28.38;;
22939;SDS011;11636;52.086;5.090;2023-05-10T01:02:57;51.35;;;29.02;;
22939;SDS011;11636;52.086;5.090;2023-05-10T01:05:51;47.30;;;28.73;;
22939;SDS011;11636;52.086;5.090;2023-05-10T01:08:38;52.10;;;29.77;;
22939;SDS011;11636;52.086;5.090;2023-05-10T01:11:36;58.13;;;34.20;;
22939;SDS011;11636;52.086;5.090;2023-05-10T01:14:25;60.28;;;33.50;;
22939;SDS011;11636;52.086;5.090;2023-05-10T01:17:20;52.33;;;30.80;;
22939;SDS011;11636;52.086;5.090;2023-05-10T01:20:09;42.83;;;26.17;;
22939;SDS011;11636;52.086;5.090;2023-05-10T01:26:39;55.80;;;30.85;;
22939;SDS011;11636;52.086;5.090;2023-05-10T01:33:10;56.13;;;32.00;;
22939;SDS011;11636;52.086;5.090;2023-05-10T01:40:00;64.47;;;31.08;;
22939;SDS011;11636;52.086;5.090;2023-05-10T01:46:04;72.68;;;34.80;;
22939;SDS011;11636;52.086;5.090;2023-05-10T01:49:24;64.40;;;32.28;;
22939;SDS011;11636;52.086;5.090;2023-05-10T01:52:15;79.15;;;36.13;;
22939;SDS011;11636;52.086;5.090;2023-05-10T01:55:15;73.10;;;35.97;;
22939;SDS011;11636;52.086;5.090;2023-05-10T01:58:07;69.85;;;33.28;;
22939;SDS011;11636;52.086;5.090;2023-05-10T02:01:03;81.88;;;38.13;;
22939;SDS011;11636;52.086;5.090;2023-05-10T02:03:59;66.50;;;33.03;;
22939;SDS011;11636;52.086;5.090;2023-05-10T02:06:54;61.67;;;30.55;;
22939;SDS011;11636;52.086;5.090;2023-05-10T02:09:49;82.65;;;35.67;;
22939;SDS011;11636;52.086;5.090;2023-05-10T02:12:44;87.13;;;38.03;;
22939;SDS011;11636;52.086;5.090;2023-05-10T02:15:41;79.80;;;35.67;;
22939;SDS011;11636;52.086;5.090;2023-05-10T02:18:29;75.90;;;35.63;;
22939;SDS011;11636;52.086;5.090;2023-05-10T02:21:24;75.57;;;38.13;;
22939;SDS011;11636;52.086;5.090;2023-05-10T02:24:19;72.97;;;38.55;;
22939;SDS011;11636;52.086;5.090;2023-05-10T02:27:08;78.53;;;40.22;;
22939;SDS011;11636;52.086;5.090;2023-05-10T02:30:04;72.93;;;38.55;;
22939;SDS011;11636;52.086;5.090;2023-05-10T02:33:00;73.22;;;39.22;;
22939;SDS011;11636;52.086;5.090;2023-05-10T02:35:57;76.80;;;43.63;;
22939;SDS011;11636;52.086;5.090;2023-05-10T02:38:44;67.10;;;38.38;;
22939;SDS011;11636;52.086;5.090;2023-05-10T02:41:40;65.18;;;36.55;;
22939;SDS011;11636;52.086;5.090;2023-05-10T02:44:35;63.67;;;37.65;;
22939;SDS011;11636;52.086;5.090;2023-05-10T02:47:30;75.93;;;41.97;;
22939;SDS011;11636;52.086;5.090;2023-05-10T02:50:38;83.28;;;42.72;;
22939;SDS011;11636;52.086;5.090;2023-05-10T02:53:44;87.60;;;44.97;;
22939;SDS011;11636;52.086;5.090;2023-05-10T02:56:40;82.72;;;41.67;;
22939;SDS011;11636;52.086;5.090;2023-05-10T02:59:38;77.10;;;40.58;;
22939;SDS011;11636;52.086;5.090;2023-05-10T03:02:25;74.10;;;39.88;;
22939;SDS011;11636;52.086;5.090;2023-05-10T03:05:20;69.80;;;37.20;;
22939;SDS011;11636;52.086;5.090;2023-05-10T03:08:14;83.97;;;42.75;;
22939;SDS011;11636;52.086;5.090;2023-05-10T03:11:06;83.35;;;40.78;;
22939;SDS011;11636;52.086;5.090;2023-05-10T03:14:25;77.05;;;39.50;;
22939;SDS011;11636;52.086;5.090;2023-05-10T03:21:04;100.22;;;46.30;;
22939;SDS011;11636;52.086;5.090;2023-05-10T03:23:58;101.15;;;46.67;;
22939;SDS011;11636;52.086;5.090;2023-05-10T03:26:58;104.50;;;46.45;;
22939;SDS011;11636;52.086;5.090;2023-05-10T03:29:49;95.63;;;44.65;;
22939;SDS011;11636;52.086;5.090;2023-05-10T03:32:44;80.63;;;41.33;;
22939;SDS011;11636;52.086;5.090;2023-05-10T03:35:38;96.75;;;44.38;;
22939;SDS011;11636;52.086;5.090;2023-05-10T03:38:32;110.43;;;47.70;;
22939;SDS011;11636;52.086;5.090;2023-05-10T03:41:19;96.80;;;43.97;;
22939;SDS011;11636;52.086;5.090;2023-05-10T03:44:13;87.32;;;42.25;;
22939;SDS011;11636;52.086;5.090;2023-05-10T03:47:07;93.18;;;42.97;;
22939;SDS011;11636;52.086;5.090;2023-05-10T03:49:54;93.85;;;43.05;;
22939;SDS011;11636;52.086;5.090;2023-05-10T03:52:48;81.47;;;41.40;;
22939;SDS011;11636;52.086;5.090;2023-05-10T03:55:42;92.57;;;45.17;;
22939;SDS011;11636;52.086;5.090;2023-05-10T03:58:29;70.47;;;38.33;;
22939;SDS011;11636;52.086;5.090;2023-05-10T04:01:23;71.00;;;38.38;;
22939;SDS011;11636;52.086;5.090;2023-05-10T04:04:10;95.55;;;44.83;;
22939;SDS011;11636;52.086;5.090;2023-05-10T04:07:04;93.95;;;46.15;;
22939;SDS011;11636;52.086;5.090;2023-05-10T04:09:58;88.07;;;46.78;;
22939;SDS011;11636;52.086;5.090;2023-05-10T04:12:52;70.93;;;39.60;;
22939;SDS011;11636;52.086;5.090;2023-05-10T04:15:39;82.65;;;44.10;;
22939;SDS011;11636;52.086;5.090;2023-05-10T04:18:33;91.75;;;47.67;;
22939;SDS011;11636;52.086;5.090;2023-05-10T04:21:20;86.95;;;48.03;;
22939;SDS011;11636;52.086;5.090;2023-05-10T04:24:14;73.25;;;42.83;;
22939;SDS011;11636;52.086;5.090;2023-05-10T04:27:08;93.93;;;50.13;;
22939;SDS011;11636;52.086;5.090;2023-05-10T04:29:55;82.03;;;46.03;;
22939;SDS011;11636;52.086;5.090;2023-05-10T04:32:49;75.85;;;44.15;;
22939;SDS011;11636;52.086;5.090;2023-05-10T04:35:43;77.68;;;45.83;;
22939;SDS011;11636;52.086;5.090;2023-05-10T04:38:38;78.72;;;45.33;;
22939;SDS011;11636;52.086;5.090;2023-05-10T04:41:32;76.18;;;44.50;;
22939;SDS011;11636;52.086;5.090;2023-05-10T04:44:26;80.10;;;46.00;;
22939;SDS011;11636;52.086;5.090;2023-05-10T04:47:13;71.15;;;44.05;;
22939;SDS011;11636;52.086;5.090;2023-05-10T04:50:07;75.00;;;44.70;;
22939;SDS011;11636;52.086;5.090;2023-05-10T04:53:01;82.75;;;46.10;;
22939;SDS011;11636;52.086;5.090;2023-05-10T04:55:48;83.38;;;45.33;;
22939;SDS011;11636;52.086;5.090;2023-05-10T04:58:42;87.05;;;45.72;;
22939;SDS011;11636;52.086;5.090;2023-05-10T05:01:29;95.25;;;50.42;;
22939;SDS011;11636;52.086;5.090;2023-05-10T05:04:23;85.80;;;46.00;;
22939;SDS011;11636;52.086;5.090;2023-05-10T05:07:10;83.68;;;44.33;;
22939;SDS011;11636;52.086;5.090;2023-05-10T05:10:07;81.93;;;43.53;;
22939;SDS011;11636;52.086;5.090;2023-05-10T05:13:02;86.90;;;44.05;;
22939;SDS011;11636;52.086;5.090;2023-05-10T05:15:50;88.97;;;43.55;;
22939;SDS011;11636;52.086;5.090;2023-05-10T05:18:44;74.68;;;39.88;;
22939;SDS011;11636;52.086;5.090;2023-05-10T05:21:31;80.40;;;40.15;;
22939;SDS011;11636;52.086;5.090;2023-05-10T05:24:25;73.68;;;39.80;;
22939;SDS011;11636;52.086;5.090;2023-05-10T05:27:19;75.53;;;40.30;;
22939;SDS011;11636;52.086;5.090;2023-05-10T05:30:17;67.95;;;38.72;;
22939;SDS011;11636;52.086;5.090;2023-05-10T05:33:04;68.22;;;38.88;;
22939;SDS011;11636;52.086;5.090;2023-05-10T05:36:01;65.32;;;38.53;;
22939;SDS011;11636;52.086;5.090;2023-05-10T05:38:56;57.33;;;34.35;;
22939;SDS011;11636;52.086;5.090;2023-05-10T05:41:43;51.20;;;32.03;;
22939;SDS011;11636;52.086;5.090;2023-05-10T05:44:37;48.97;;;30.40;;
22939;SDS011;11636;52.086;5.090;2023-05-10T05:47:24;49.65;;;29.52;;
22939;SDS011;11636;52.086;5.090;2023-05-10T05:50:18;46.83;;;28.05;;
22939;SDS011;11636;52.086;5.090;2023-05-10T05:53:05;46.67;;;27.67;;
22939;SDS011;11636;52.086;5.090;2023-05-10T05:55:59;46.58;;;27.20;;
22939;SDS011;11636;52.086;5.090;2023-05-10T05:58:53;45.42;;;26.92;;
22939;SDS011;11636;52.086;5.090;2023-05-10T06:01:47;38.08;;;23.80;;
22939;SDS011;11636;52.086;5.090;2023-05-10T06:04:41;40.00;;;24.25;;
22939;SDS011;11636;52.086;5.090;2023-05-10T06:07:30;36.75;;;22.52;;
22939;SDS011;11636;52.086;5.090;2023-05-10T06:10:24;40.60;;;24.10;;
22939;SDS011;11636;52.086;5.090;2023-05-10T06:13:18;37.85;;;24.55;;
22939;SDS011;11636;52.086;5.090;2023-05-10T06:16:05;37.25;;;23.00;;
22939;SDS011;11636;52.086;5.090;2023-05-10T06:19:01;39.42;;;23.23;;
22939;SDS011;11636;52.086;5.090;2023-05-10T06:21:49;34.15;;;21.58;;
22939;SDS011;11636;52.086;5.090;2023-05-10T06:24:43;33.83;;;20.55;;
22939;SDS011;11636;52.086;5.090;2023-05-10T06:27:30;26.58;;;18.38;;
22939;SDS011;11636;52.086;5.090;2023-05-10T06:30:24;28.05;;;18.70;;
22939;SDS011;11636;52.086;5.090;2023-05-10T06:33:21;26.77;;;17.35;;
22939;SDS011;11636;52.086;5.090;2023-05-10T06:36:22;28.38;;;16.88;;
22939;SDS011;11636;52.086;5.090;2023-05-10T06:39:11;22.67;;;15.13;;
22939;SDS011;11636;52.086;5.090;2023-05-10T06:42:05;23.85;;;15.02;;
22939;SDS011;11636;52.086;5.090;2023-05-10T06:44:59;24.50;;;16.02;;
22939;SDS011;11636;52.086;5.090;2023-05-10T06:47:53;22.25;;;14.85;;
22939;SDS011;11636;52.086;5.090;2023-05-10T06:50:47;26.40;;;16.25;;
22939;SDS011;11636;52.086;5.090;2023-05-10T06:53:34;20.83;;;14.18;;
22939;SDS011;11636;52.086;5.090;2023-05-10T06:56:28;19.80;;;12.80;;
22939;SDS011;11636;52.086;5.090;2023-05-10T06:59:15;21.88;;;14.52;;
22939;SDS011;11636;52.086;5.090;2023-05-10T07:02:09;20.02;;;13.35;;
22939;SDS011;11636;52.086;5.090;2023-05-10T07:04:56;17.50;;;13.05;;
22939;SDS011;11636;52.086;5.090;2023-05-10T07:07:50;20.63;;;13.07;;
22939;SDS011;11636;52.086;5.090;2023-05-10T07:10:38;17.50;;;12.55;;
22939;SDS011;11636;52.086;5.090;2023-05-10T07:13:31;18.88;;;12.55;;
22939;SDS011;11636;52.086;5.090;2023-05-10T07:16:25;19.05;;;12.60;;
22939;SDS011;11636;52.086;5.090;2023-05-10T07:19:19;15.50;;;11.15;;
22939;SDS011;11636;52.086;5.090;2023-05-10T07:22:06;18.63;;;12.95;;
22939;SDS011;11636;52.086;5.090;2023-05-10T07:25:00;18.55;;;12.07;;
22939;SDS011;11636;52.086;5.090;2023-05-10T07:27:56;16.95;;;11.57;;
22939;SDS011;11636;52.086;5.090;2023-05-10T07:30:49;20.63;;;12.32;;
22939;SDS011;11636;52.086;5.090;2023-05-10T07:33:37;20.48;;;12.93;;
22939;SDS011;11636;52.086;5.090;2023-05-10T07:36:30;17.35;;;12.05;;
22939;SDS011;11636;52.086;5.090;2023-05-10T07:39:17;18.83;;;11.98;;
22939;SDS011;11636;52.086;5.090;2023-05-10T07:42:14;18.25;;;12.00;;
22939;SDS011;11636;52.086;5.090;2023-05-10T07:45:07;15.30;;;10.60;;
22939;SDS011;11636;52.086;5.090;2023-05-10T07:48:01;15.82;;;10.38;;
22939;SDS011;11636;52.086;5.090;2023-05-10T07:50:49;17.05;;;11.07;;
22939;SDS011;11636;52.086;5.090;2023-05-10T07:53:43;15.27;;;11.50;;
22939;SDS011;11636;52.086;5.090;2023-05-10T07:56:31;15.23;;;10.88;;
22939;SDS011;11636;52.086;5.090;2023-05-10T07:59:25;16.33;;;11.25;;
22939;SDS011;11636;52.086;5.090;2023-05-10T08:02:19;16.88;;;10.90;;
22939;SDS011;11636;52.086;5.090;2023-05-10T08:05:13;17.33;;;11.02;;
22939;SDS011;11636;52.086;5.090;2023-05-10T08:08:01;14.68;;;10.55;;
22939;SDS011;11636;52.086;5.090;2023-05-10T08:10:55;13.10;;;8.82;;
22939;SDS011;11636;52.086;5.090;2023-05-10T08:13:43;13.70;;;10.27;;
22939;SDS011;11636;52.086;5.090;2023-05-10T08:16:40;15.02;;;9.57;;
22939;SDS011;11636;52.086;5.090;2023-05-10T08:19:34;13.18;;;9.10;;
22939;SDS011;11636;52.086;5.090;2023-05-10T08:22:28;13.43;;;9.82;;
22939;SDS011;11636;52.086;5.090;2023-05-10T08:25:15;12.23;;;9.35;;
22939;SDS011;11636;52.086;5.090;2023-05-10T08:28:10;13.70;;;9.20;;
22939;SDS011;11636;52.086;5.090;2023-05-10T08:30:57;14.55;;;10.25;;
22939;SDS011;11636;52.086;5.090;2023-05-10T08:33:51;13.80;;;9.90;;
22939;SDS011;11636;52.086;5.090;2023-05-10T08:36:39;16.50;;;9.80;;
22939;SDS011;11636;52.086;5.090;2023-05-10T08:39:35;12.82;;;8.40;;
22939;SDS011;11636;52.086;5.090;2023-05-10T08:42:30;13.27;;;8.95;;
22939;SDS011;11636;52.086;5.090;2023-05-10T08:45:27;13.57;;;8.88;;
22939;SDS011;11636;52.086;5.090;2023-05-10T08:48:19;10.53;;;7.90;;
22939;SDS011;11636;52.086;5.090;2023-05-10T08:51:17;11.85;;;7.82;;
22939;SDS011;11636;52.086;5.090;2023-05-10T08:54:12;9.27;;;6.63;;
22939;SDS011;11636;52.086;5.090;2023-05-10T08:57:06;11.20;;;6.68;;
22939;SDS011;11636;52.086;5.090;2023-05-10T08:59:54;10.77;;;7.07;;
22939;SDS011;11636;52.086;5.090;2023-05-10T09:02:49;10.32;;;6.82;;
22939;SDS011;11636;52.086;5.090;2023-05-10T09:05:36;9.38;;;6.82;;
22939;SDS011;11636;52.086;5.090;2023-05-10T09:08:30;10.45;;;6.78;;
22939;SDS011;11636;52.086;5.090;2023-05-10T09:11:18;7.25;;;4.97;;
22939;SDS011;11636;52.086;5.090;2023-05-10T09:14:14;9.15;;;6.15;;
22939;SDS011;11636;52.086;5.090;2023-05-10T09:17:02;9.90;;;5.88;;
22939;SDS011;11636;52.086;5.090;2023-05-10T09:20:02;7.70;;;6.10;;
22939;SDS011;11636;52.086;5.090;2023-05-10T09:22:53;6.72;;;4.80;;
22939;SDS011;11636;52.086;5.090;2023-05-10T09:25:48;7.15;;;4.90;;
22939;SDS011;11636;52.086;5.090;2023-05-10T09:28:50;7.30;;;4.97;;
22939;SDS011;11636;52.086;5.090;2023-05-10T09:31:49;6.88;;;4.57;;
22939;SDS011;11636;52.086;5.090;2023-05-10T09:34:38;7.88;;;4.93;;
22939;SDS011;11636;52.086;5.090;2023-05-10T09:37:33;6.97;;;4.28;;
22939;SDS011;11636;52.086;5.090;2023-05-10T09:40:28;7.70;;;4.78;;
22939;SDS011;11636;52.086;5.090;2023-05-10T09:43:16;5.88;;;3.90;;
22939;SDS011;11636;52.086;5.090;2023-05-10T09:46:09;5.47;;;3.70;;
22939;SDS011;11636;52.086;5.090;2023-05-10T09:49:03;7.90;;;4.93;;
22939;SDS011;11636;52.086;5.090;2023-05-10T09:52:05;7.80;;;5.43;;
22939;SDS011;11636;52.086;5.090;2023-05-10T09:55:00;9.07;;;6.17;;
22939;SDS011;11636;52.086;5.090;2023-05-10T09:57:58;9.63;;;6.30;;
22939;SDS011;11636;52.086;5.090;2023-05-10T10:00:47;8.27;;;5.47;;
22939;SDS011;11636;52.086;5.090;2023-05-10T10:03:43;8.77;;;5.90;;
22939;SDS011;11636;52.086;5.090;2023-05-10T10:06:35;9.48;;;5.88;;
22939;SDS011;11636;52.086;5.090;2023-05-10T10:09:31;9.68;;;6.53;;
22939;SDS011;11636;52.086;5.090;2023-05-10T10:12:19;9.63;;;5.63;;
22939;SDS011;11636;52.086;5.090;2023-05-10T10:15:13;8.20;;;6.35;;
22939;SDS011;11636;52.086;5.090;2023-05-10T10:18:02;9.30;;;6.72;;
22939;SDS011;11636;52.086;5.090;2023-05-10T10:20:58;8.90;;;6.50;;
22939;SDS011;11636;52.086;5.090;2023-05-10T10:23:52;8.77;;;6.22;;
22939;SDS011;11636;52.086;5.090;2023-05-10T10:26:46;9.23;;;6.60;;
22939;SDS011;11636;52.086;5.090;2023-05-10T10:29:46;9.15;;;6.78;;
22939;SDS011;11636;52.086;5.090;2023-05-10T10:35:57;9.75;;;6.32;;
22939;SDS011;11636;52.086;5.090;2023-05-10T10:41:50;8.43;;;5.97;;
22939;SDS011;11636;52.086;5.090;2023-05-10T10:44:55;9.57;;;5.55;;
22939;SDS011;11636;52.086;5.090;2023-05-10T10:51:17;8.45;;;4.88;;
22939;SDS011;11636;52.086;5.090;2023-05-10T10:54:11;7.32;;;4.70;;
22939;SDS011;11636;52.086;5.090;2023-05-10T10:57:12;6.10;;;3.85;;
22939;SDS011;11636;52.086;5.090;2023-05-10T11:03:14;5.65;;;3.90;;
22939;SDS011;11636;52.086;5.090;2023-05-10T11:06:11;6.55;;;4.00;;
22939;SDS011;11636;52.086;5.090;2023-05-10T11:09:09;6.53;;;4.70;;
22939;SDS011;11636;52.086;5.090;2023-05-10T11:11:58;9.10;;;4.95;;
22939;SDS011;11636;52.086;5.090;2023-05-10T11:14:52;7.60;;;4.57;;
22939;SDS011;11636;52.086;5.090;2023-05-10T11:17:50;6.20;;;4.22;;
22939;SDS011;11636;52.086;5.090;2023-05-10T11:20:39;5.32;;;3.67;;
22939;SDS011;11636;52.086;5.090;2023-05-10T11:23:47;5.78;;;3.50;;
22939;SDS011;11636;52.086;5.090;2023-05-10T11:26:43;5.15;;;3.00;;
22939;SDS011;11636;52.086;5.090;2023-05-10T11:29:30;5.85;;;3.10;;
22939;SDS011;11636;52.086;5.090;2023-05-10T11:32:23;6.32;;;3.08;;
22939;SDS011;11636;52.086;5.090;2023-05-10T11:35:17;5.45;;;3.55;;
22939;SDS011;11636;52.086;5.090;2023-05-10T11:38:06;5.88;;;3.42;;
22939;SDS011;11636;52.086;5.090;2023-05-10T11:41:03;6.28;;;4.03;;
22939;SDS011;11636;52.086;5.090;2023-05-10T11:43:54;9.38;;;4.47;;
22939;SDS011;11636;52.086;5.090;2023-05-10T11:46:49;7.75;;;4.53;;
22939;SDS011;11636;52.086;5.090;2023-05-10T11:49:36;6.45;;;4.18;;
22939;SDS011;11636;52.086;5.090;2023-05-10T11:52:34;5.18;;;3.22;;
22939;SDS011;11636;52.086;5.090;2023-05-10T11:55:22;7.18;;;5.57;;
22939;SDS011;11636;52.086;5.090;2023-05-10T11:58:19;9.75;;;6.35;;
22939;SDS011;11636;52.086;5.090;2023-05-10T12:01:08;8.05;;;6.72;;
22939;SDS011;11636;52.086;5.090;2023-05-10T12:04:03;8.07;;;6.43;;
22939;SDS011;11636;52.086;5.090;2023-05-10T12:06:50;7.55;;;6.40;;
22939;SDS011;11636;52.086;5.090;2023-05-10T12:09:44;8.63;;;7.35;;
22939;SDS011;11636;52.086;5.090;2023-05-10T12:12:41;7.75;;;6.18;;
22939;SDS011;11636;52.086;5.090;2023-05-10T12:15:37;9.95;;;8.55;;
22939;SDS011;11636;52.086;5.090;2023-05-10T12:18:24;21.35;;;10.18;;
22939;SDS011;11636;52.086;5.090;2023-05-10T12:21:18;23.08;;;11.32;;
22939;SDS011;11636;52.086;5.090;2023-05-10T12:24:14;21.85;;;13.15;;
22939;SDS011;11636;52.086;5.090;2023-05-10T12:27:04;18.42;;;12.25;;
22939;SDS011;11636;52.086;5.090;2023-05-10T12:30:01;25.92;;;14.05;;
22939;SDS011;11636;52.086;5.090;2023-05-10T12:33:09;22.38;;;13.93;;
22939;SDS011;11636;52.086;5.090;2023-05-10T12:36:05;23.45;;;14.18;;
22939;SDS011;11636;52.086;5.090;2023-05-10T12:38:59;21.55;;;14.25;;
22939;SDS011;11636;52.086;5.090;2023-05-10T12:41:55;21.50;;;14.00;;
22939;SDS011;11636;52.086;5.090;2023-05-10T12:44:43;27.25;;;15.48;;
22939;SDS011;11636;52.086;5.090;2023-05-10T12:47:37;26.20;;;14.73;;
22939;SDS011;11636;52.086;5.090;2023-05-10T12:50:27;26.35;;;15.27;;
22939;SDS011;11636;52.086;5.090;2023-05-10T12:53:21;25.52;;;15.68;;
22939;SDS011;11636;52.086;5.090;2023-05-10T12:56:08;31.45;;;17.20;;
22939;SDS011;11636;52.086;5.090;2023-05-10T12:59:02;24.75;;;15.52;;
22939;SDS011;11636;52.086;5.090;2023-05-10T13:01:49;24.00;;;14.75;;
22939;SDS011;11636;52.086;5.090;2023-05-10T13:04:43;26.95;;;15.20;;
22939;SDS011;11636;52.086;5.090;2023-05-10T13:07:30;24.10;;;14.70;;
22939;SDS011;11636;52.086;5.090;2023-05-10T13:10:25;31.05;;;16.92;;
22939;SDS011;11636;52.086;5.090;2023-05-10T13:13:19;29.33;;;16.25;;
22939;SDS011;11636;52.086;5.090;2023-05-10T13:16:06;24.33;;;14.60;;
22939;SDS011;11636;52.086;5.090;2023-05-10T13:19:00;26.15;;;15.98;;
22939;SDS011;11636;52.086;5.090;2023-05-10T13:21:54;25.98;;;15.15;;
22939;SDS011;11636;52.086;5.090;2023-05-10T13:24:48;22.95;;;14.15;;
22939;SDS011;11636;52.086;5.090;2023-05-10T13:27:42;22.30;;;13.70;;
22939;SDS011;11636;52.086;5.090;2023-05-10T13:30:36;20.85;;;13.30;;
22939;SDS011;11636;52.086;5.090;2023-05-10T13:33:23;21.00;;;13.38;;
22939;SDS011;11636;52.086;5.090;2023-05-10T13:36:17;19.90;;;13.23;;
22939;SDS011;11636;52.086;5.090;2023-05-10T13:39:04;18.95;;;12.88;;
22939;SDS011;11636;52.086;5.090;2023-05-10T13:41:58;22.35;;;13.20;;
22939;SDS011;11636;52.086;5.090;2023-05-10T13:44:45;20.85;;;12.75;;
22939;SDS011;11636;52.086;5.090;2023-05-10T13:47:39;19.48;;;12.02;;
22939;SDS011;11636;52.086;5.090;2023-05-10T13:50:26;18.08;;;10.95;;
22939;SDS011;11636;52.086;5.090;2023-05-10T13:53:20;16.98;;;10.93;;
22939;SDS011;11636;52.086;5.090;2023-05-10T13:56:07;21.55;;;14.23;;
22939;SDS011;11636;52.086;5.090;2023-05-10T13:59:01;19.80;;;12.70;;
22939;SDS011;11636;52.086;5.090;2023-05-10T14:01:55;18.45;;;10.77;;
22939;SDS011;11636;52.086;5.090;2023-05-10T14:04:42;17.00;;;10.82;;
22939;SDS011;11636;52.086;5.090;2023-05-10T14:07:36;14.10;;;9.75;;
22939;SDS011;11636;52.086;5.090;2023-05-10T14:10:23;15.07;;;10.60;;
22939;SDS011;11636;52.086;5.090;2023-05-10T14:13:17;16.38;;;10.32;;
22939;SDS011;11636;52.086;5.090;2023-05-10T14:16:04;14.43;;;9.43;;
22939;SDS011;11636;52.086;5.090;2023-05-10T14:18:58;13.05;;;8.75;;
22939;SDS011;11636;52.086;5.090;2023-05-10T14:21:45;14.02;;;9.07;;
22939;SDS011;11636;52.086;5.090;2023-05-10T14:24:39;15.43;;;10.40;;
22939;SDS011;11636;52.086;5.090;2023-05-10T14:27:33;13.05;;;8.93;;
22939;SDS011;11636;52.086;5.090;2023-05-10T14:30:27;14.05;;;8.80;;
22939;SDS011;11636;52.086;5.090;2023-05-10T14:33:21;15.27;;;9.93;;
22939;SDS011;11636;52.086;5.090;2023-05-10T14:36:08;15.77;;;9.90;;
22939;SDS011;11636;52.086;5.090;2023-05-10T14:39:02;12.68;;;8.57;;
22939;SDS011;11636;52.086;5.090;2023-05-10T14:41:49;12.85;;;8.50;;
22939;SDS011;11636;52.086;5.090;2023-05-10T14:44:44;13.10;;;8.88;;
22939;SDS011;11636;52.086;5.090;2023-05-10T14:47:38;12.68;;;8.40;;
22939;SDS011;11636;52.086;5.090;2023-05-10T14:50:25;13.05;;;9.18;;
22939;SDS011;11636;52.086;5.090;2023-05-10T14:53:23;13.82;;;9.05;;
22939;SDS011;11636;52.086;5.090;2023-05-10T14:56:16;16.15;;;9.63;;
22939;SDS011;11636;52.086;5.090;2023-05-10T14:59:10;14.45;;;9.52;;
22939;SDS011;11636;52.086;5.090;2023-05-10T15:01:58;13.13;;;8.95;;
22939;SDS011;11636;52.086;5.090;2023-05-10T15:04:52;14.70;;;9.57;;
22939;SDS011;11636;52.086;5.090;2023-05-10T15:07:46;14.07;;;9.32;;
22939;SDS011;11636;52.086;5.090;2023-05-10T15:10:40;13.38;;;8.77;;
22939;SDS011;11636;52.086;5.090;2023-05-10T15:13:27;16.48;;;9.20;;
22939;SDS011;11636;52.086;5.090;2023-05-10T15:16:21;12.98;;;8.98;;
22939;SDS011;11636;52.086;5.090;2023-05-10T15:19:08;15.60;;;9.00;;
22939;SDS011;11636;52.086;5.090;2023-05-10T15:22:03;13.98;;;9.50;;
22939;SDS011;11636;52.086;5.090;2023-05-10T15:24:57;14.85;;;10.02;;
22939;SDS011;11636;52.086;5.090;2023-05-10T15:27:45;18.25;;;12.57;;
22939;SDS011;11636;52.086;5.090;2023-05-10T15:30:39;16.02;;;11.35;;
22939;SDS011;11636;52.086;5.090;2023-05-10T15:33:26;18.80;;;11.60;;
22939;SDS011;11636;52.086;5.090;2023-05-10T15:36:20;15.82;;;11.63;;
22939;SDS011;11636;52.086;5.090;2023-05-10T15:39:07;18.83;;;12.95;;
22939;SDS011;11636;52.086;5.090;2023-05-10T15:42:02;19.48;;;13.27;;
22939;SDS011;11636;52.086;5.090;2023-05-10T15:44:57;20.25;;;13.30;;
22939;SDS011;11636;52.086;5.090;2023-05-10T15:47:45;18.70;;;12.40;;
22939;SDS011;11636;52.086;5.090;2023-05-10T15:50:39;16.45;;;11.75;;
22939;SDS011;11636;52.086;5.090;2023-05-10T15:53:26;18.05;;;12.27;;
22939;SDS011;11636;52.086;5.090;2023-05-10T15:56:20;17.92;;;11.45;;
22939;SDS011;11636;52.086;5.090;2023-05-10T15:59:08;17.58;;;12.07;;
22939;SDS011;11636;52.086;5.090;2023-05-10T16:02:03;15.60;;;11.13;;
22939;SDS011;11636;52.086;5.090;2023-05-10T16:04:57;18.35;;;11.90;;
22939;SDS011;11636;52.086;5.090;2023-05-10T16:07:51;18.23;;;12.52;;
22939;SDS011;11636;52.086;5.090;2023-05-10T16:10:45;16.90;;;11.35;;
22939;SDS011;11636;52.086;5.090;2023-05-10T16:13:39;16.25;;;10.57;;
22939;SDS011;11636;52.086;5.090;2023-05-10T16:16:33;15.60;;;10.05;;
22939;SDS011;11636;52.086;5.090;2023-05-10T16:19:27;13.95;;;9.77;;
22939;SDS011;11636;52.086;5.090;2023-05-10T16:22:21;12.18;;;8.68;;
22939;SDS011;11636;52.086;5.090;2023-05-10T16:25:19;13.50;;;9.18;;
22939;SDS011;11636;52.086;5.090;2023-05-10T16:28:06;10.63;;;7.45;;
22939;SDS011;11636;52.086;5.090;2023-05-10T16:31:00;10.10;;;7.32;;
22939;SDS011;11636;52.086;5.090;2023-05-10T16:33:54;10.68;;;7.53;;
22939;SDS011;11636;52.086;5.090;2023-05-10T16:36:41;13.57;;;9.60;;
22939;SDS011;11636;52.086;5.090;2023-05-10T16:39:35;12.85;;;9.38;;
22939;SDS011;11636;52.086;5.090;2023-05-10T16:42:29;17.23;;;12.73;;
22939;SDS011;11636;52.086;5.090;2023-05-10T16:45:23;16.25;;;11.05;;
22939;SDS011;11636;52.086;5.090;2023-05-10T16:48:11;19.98;;;12.18;;
22939;SDS011;11636;52.086;5.090;2023-05-10T16:51:05;15.57;;;10.63;;
22939;SDS011;11636;52.086;5.090;2023-05-10T16:53:53;13.75;;;9.93;;
22939;SDS011;11636;52.086;5.090;2023-05-10T16:56:47;17.17;;;10.90;;
22939;SDS011;11636;52.086;5.090;2023-05-10T16:59:41;15.20;;;10.35;;
22939;SDS011;11636;52.086;5.090;2023-05-10T17:02:28;16.23;;;10.50;;
22939;SDS011;11636;52.086;5.090;2023-05-10T17:05:22;13.45;;;9.68;;
22939;SDS011;11636;52.086;5.090;2023-05-10T17:08:16;14.55;;;9.80;;
22939;SDS011;11636;52.086;5.090;2023-05-10T17:11:10;16.23;;;10.25;;
22939;SDS011;11636;52.086;5.090;2023-05-10T17:14:04;16.45;;;10.63;;
22939;SDS011;11636;52.086;5.090;2023-05-10T17:16:58;14.93;;;10.05;;
22939;SDS011;11636;52.086;5.090;2023-05-10T17:19:52;15.00;;;10.45;;
22939;SDS011;11636;52.086;5.090;2023-05-10T17:22:45;13.10;;;8.52;;
22939;SDS011;11636;52.086;5.090;2023-05-10T17:25:40;10.88;;;7.68;;
22939;SDS011;11636;52.086;5.090;2023-05-10T17:28:27;12.13;;;8.40;;
22939;SDS011;11636;52.086;5.090;2023-05-10T17:31:21;10.73;;;7.38;;